Main page
METAR-TAF:

METAR-TAF

Airports :

Thief River Falls Regional Airport

Thief River Falls, Minnesota, United States

latitude: 48-04N, longitude: 096-11W, elevation: 340 m

Current weather observation

The report was made 9 minutes ago, at 02:56 UTC
Wind 10 kt from the North/Northwest
Temperature 10°C
Humidity 62%
Pressure 1021 hPa
Visibility: 16.1 km
Clear sky

METAR: KTVF 230256Z AUTO 33010KT 10SM CLR 10/03 A3014 RMK AO2 SLP213 T01000033 53002

Time: 22:05 (03:05 UTC)

Forecast

The report was made 3 hours and 45 minutes ago, at 23:20 UTC
Forecast valid from 23 at 00 UTC to 23 at 24 UTC
Wind 9 kt from the Northwest
Visibility: 10 km
Few clouds at a height of 8000 ft
From 23 at 0600 UTC
Wind 4 kt from variable directions
Visibility: 10 km
Clear sky
From 23 at 1500 UTC
Wind 8 kt from the South
Visibility: 10 km
Few clouds at a height of 25000 ft

TAF: KTVF 222320Z 2300/2324 32009KT P6SM FEW080 FM230600 VRB04KT P6SM SKC FM231500 19008KT P6SM FEW250

Weather observations and forecasts of more than 4000 airports (METAR and TAF reports).

The available stations are represented by yellow and red dots on the map.

Hover mouse over dot to see the name of the station.

Then click to see weather observations and forecasts.

To change the map : click on the green buttons with a black cross to zoom in, on the green button with a dash to zoom out, or on the green arrows for adjacent maps.


METAR-TAF: